Haskell Heights, South Carolina
Current Conditions -  °F | °C
As of 6:53 AM on Wednesday 28 Jan 2015 (Local Time) from KCUB Reporting Station
Clear Clear  
Wind Chill: 28°   Ceiling: Unl
Heat Index: 28°   Visibility: 10mi
Dew Point: 21°   Wind: 0mph
Humidity: 75%   Direction: NA
Pressure: 30.21"   Gusts: NA
Location:  34.1179°N, 81.0612°W
Report Text: KCUB 281153Z AUTO 00000KT 10SM CLR M02/M06 A3021 RMK AO2 SLP229 T10221061 10033 21022 53031
Loading
Personal Weather Stations






























Interactive Weather Map New forecast layout! Learn more

10-Day Weather Forecast

Advertisements
Track Severe Weather on mobile